Terminal Aerodrome Forecast
Issued by NWS Twin Cities, MN

Home | Current Version | Previous Version | Text Only | Print | Product List | Glossary On
Versions: 1 2 3 4 5 6 7 8 9 10 11 12 13 14 15 16 17 18 19 20 21 22 23 24 25 26 27 28 29
000
FTUS43 KMPX 110847 AAB
TAFMSP
TAF AMD
KMSP 110847Z 1109/1212 17004KT P6SM OVC045
     FM111200 23004KT P6SM OVC070
     FM111600 31011KT P6SM VCSH OVC030
     FM111900 32016G27KT P6SM SCT015 OVC022
     FM112200 33019G28KT P6SM SCT025 BKN050
     FM120600 32009KT P6SM FEW150=

USA.gov is the U.S. government's official web portal to all federal, state and local government web resources and services.